SAS1294 EKCH-BGGH
Flight info
| Callsign | SAS1294 |
|---|---|
| Flight time | N/A |
| Altitude | 36000 |
| Route | GOLGA DCT GUNPA/M077F360 DCT 63N010W 64N020W 65N030W/M077F380 65N040W DCT GETDA |
| Aircraft | A20N/M-SDE2E3FGHIRWXY/LB1 |
Departure
| Time | 2026-05-07 09:35 |
|---|---|
| Airport | Copenhagen Kastrup Airport (EKCH) |
Arrival
| Time | N/A |
|---|---|
| Airport | Nuuk International Airport (BGGH) |
| Time | Latitude | Longitude | Altitude | Speed | Heading |
|---|---|---|---|---|---|
| 2026-05-07 09:22 | 55.62555 | 12.64890 | 25 ft | 0 kts | 90° |
| 2026-05-07 09:24 | 55.62555 | 12.64881 | 26 ft | 2 kts | 90° |
| 2026-05-07 09:24 | 55.62555 | 12.64855 | 25 ft | 2 kts | 90° |
| 2026-05-07 09:24 | 55.62555 | 12.64828 | 26 ft | 2 kts | 91° |
| 2026-05-07 09:25 | 55.62559 | 12.64802 | 25 ft | 2 kts | 121° |
| 2026-05-07 09:25 | 55.62569 | 12.64781 | 25 ft | 2 kts | 144° |
| 2026-05-07 09:25 | 55.62582 | 12.64770 | 25 ft | 2 kts | 167° |
| 2026-05-07 09:25 | 55.62590 | 12.64767 | 25 ft | 1 kts | 180° |
| 2026-05-07 09:26 | 55.62595 | 12.64768 | 26 ft | 0 kts | 179° |
| 2026-05-07 09:28 | 55.62585 | 12.64768 | 25 ft | 3 kts | 179° |
| 2026-05-07 09:28 | 55.62542 | 12.64770 | 25 ft | 8 kts | 179° |
| 2026-05-07 09:28 | 55.62481 | 12.64772 | 25 ft | 9 kts | 176° |
| 2026-05-07 09:28 | 55.62413 | 12.64781 | 25 ft | 10 kts | 176° |
| 2026-05-07 09:29 | 55.62340 | 12.64786 | 25 ft | 11 kts | 178° |
| 2026-05-07 09:29 | 55.62271 | 12.64841 | 25 ft | 11 kts | 133° |
| 2026-05-07 09:29 | 55.62228 | 12.64961 | 26 ft | 11 kts | 120° |
| 2026-05-07 09:29 | 55.62190 | 12.65077 | 28 ft | 10 kts | 124° |
| 2026-05-07 09:30 | 55.62133 | 12.65091 | 30 ft | 8 kts | 208° |
| 2026-05-07 09:30 | 55.62050 | 12.64993 | 25 ft | 18 kts | 214° |
| 2026-05-07 09:30 | 55.61943 | 12.64869 | 25 ft | 18 kts | 213° |
| 2026-05-07 09:30 | 55.61840 | 12.64752 | 26 ft | 17 kts | 213° |
| 2026-05-07 09:31 | 55.61742 | 12.64642 | 27 ft | 16 kts | 212° |
| 2026-05-07 09:31 | 55.61642 | 12.64535 | 26 ft | 17 kts | 212° |
| 2026-05-07 09:31 | 55.61542 | 12.64420 | 26 ft | 17 kts | 215° |
| 2026-05-07 09:31 | 55.61447 | 12.64305 | 28 ft | 16 kts | 214° |
| 2026-05-07 09:32 | 55.61353 | 12.64195 | 27 ft | 16 kts | 213° |
| 2026-05-07 09:32 | 55.61255 | 12.64089 | 27 ft | 16 kts | 210° |
| 2026-05-07 09:32 | 55.61156 | 12.63978 | 26 ft | 16 kts | 213° |
| 2026-05-07 09:32 | 55.61055 | 12.63859 | 24 ft | 17 kts | 217° |
| 2026-05-07 09:33 | 55.60955 | 12.63730 | 23 ft | 18 kts | 215° |
| 2026-05-07 09:33 | 55.60847 | 12.63613 | 22 ft | 18 kts | 200° |
| 2026-05-07 09:33 | 55.60741 | 12.63687 | 22 ft | 17 kts | 133° |
| 2026-05-07 09:33 | 55.60699 | 12.63876 | 21 ft | 17 kts | 63° |
| 2026-05-07 09:34 | 55.60823 | 12.64095 | 22 ft | 48 kts | 41° |
| 2026-05-07 09:34 | 55.61246 | 12.64748 | 27 ft | 111 kts | 41° |
| 2026-05-07 09:34 | 55.61969 | 12.65863 | 29 ft | 163 kts | 41° |
| 2026-05-07 09:34 | 55.62806 | 12.67168 | 484 ft | 166 kts | 39° |
| 2026-05-07 09:35 | 55.63653 | 12.68463 | 1167 ft | 163 kts | 40° |
| 2026-05-07 09:35 | 55.64510 | 12.69788 | 1744 ft | 166 kts | 39° |
| 2026-05-07 09:35 | 55.65445 | 12.71066 | 2093 ft | 176 kts | 23° |
| 2026-05-07 09:35 | 55.66679 | 12.71351 | 2380 ft | 190 kts | 349° |
| 2026-05-07 09:36 | 55.67977 | 12.70562 | 2695 ft | 205 kts | 344° |
| 2026-05-07 09:36 | 55.69450 | 12.70127 | 2963 ft | 224 kts | 355° |
| 2026-05-07 09:36 | 55.71029 | 12.69864 | 3527 ft | 230 kts | 356° |
| 2026-05-07 09:36 | 55.72618 | 12.69646 | 4092 ft | 237 kts | 357° |
| 2026-05-07 09:37 | 55.74320 | 12.69443 | 4493 ft | 252 kts | 357° |
| 2026-05-07 09:37 | 55.76091 | 12.69248 | 5145 ft | 257 kts | 357° |
| 2026-05-07 09:37 | 55.77858 | 12.69060 | 5861 ft | 259 kts | 357° |
| 2026-05-07 09:37 | 55.79654 | 12.68871 | 6556 ft | 262 kts | 356° |
| 2026-05-07 09:38 | 55.81453 | 12.68264 | 7210 ft | 266 kts | 335° |
| 2026-05-07 09:38 | 55.82943 | 12.66331 | 7901 ft | 270 kts | 315° |
| 2026-05-07 09:38 | 55.84224 | 12.63919 | 8575 ft | 273 kts | 314° |
| 2026-05-07 09:38 | 55.85538 | 12.61439 | 9220 ft | 276 kts | 314° |
| 2026-05-07 09:39 | 55.86843 | 12.58974 | 9848 ft | 280 kts | 314° |
| 2026-05-07 09:39 | 55.88198 | 12.56411 | 10448 ft | 285 kts | 314° |
| 2026-05-07 09:39 | 55.89589 | 12.53777 | 10751 ft | 300 kts | 314° |
| 2026-05-07 09:39 | 55.91036 | 12.51036 | 11034 ft | 315 kts | 314° |
| 2026-05-07 09:40 | 55.92577 | 12.48111 | 11460 ft | 324 kts | 314° |
| 2026-05-07 09:40 | 55.94136 | 12.45150 | 12093 ft | 327 kts | 314° |
| 2026-05-07 09:40 | 55.95692 | 12.42188 | 12730 ft | 329 kts | 313° |
| 2026-05-07 09:40 | 55.97250 | 12.39221 | 13298 ft | 333 kts | 313° |
| 2026-05-07 09:41 | 55.98827 | 12.36214 | 13868 ft | 336 kts | 313° |
| 2026-05-07 09:41 | 56.00433 | 12.33147 | 14431 ft | 339 kts | 312° |
| 2026-05-07 09:41 | 56.02071 | 12.30016 | 15030 ft | 341 kts | 312° |
| 2026-05-07 09:41 | 56.03685 | 12.26928 | 15604 ft | 343 kts | 312° |
| 2026-05-07 09:42 | 56.05343 | 12.23751 | 16177 ft | 345 kts | 312° |
| 2026-05-07 09:42 | 56.06977 | 12.20615 | 16725 ft | 347 kts | 311° |
| 2026-05-07 09:42 | 56.08632 | 12.17436 | 17276 ft | 350 kts | 311° |
| 2026-05-07 09:42 | 56.10289 | 12.14246 | 17797 ft | 352 kts | 311° |
| 2026-05-07 09:43 | 56.11961 | 12.11022 | 18312 ft | 354 kts | 311° |
| 2026-05-07 09:43 | 56.13653 | 12.07756 | 18835 ft | 356 kts | 311° |
| 2026-05-07 09:43 | 56.15330 | 12.04512 | 19324 ft | 358 kts | 311° |
| 2026-05-07 09:43 | 56.16988 | 12.01301 | 19789 ft | 360 kts | 311° |
| 2026-05-07 09:44 | 56.18700 | 11.97982 | 20248 ft | 363 kts | 311° |
| 2026-05-07 09:44 | 56.20416 | 11.94651 | 20684 ft | 366 kts | 311° |
| 2026-05-07 09:44 | 56.22130 | 11.91321 | 21120 ft | 369 kts | 311° |
| 2026-05-07 09:44 | 56.23883 | 11.87908 | 21569 ft | 371 kts | 311° |
| 2026-05-07 09:45 | 56.25625 | 11.84512 | 21995 ft | 373 kts | 311° |
| 2026-05-07 09:45 | 56.27381 | 11.81084 | 22414 ft | 375 kts | 310° |
| 2026-05-07 09:45 | 56.29141 | 11.77642 | 22836 ft | 377 kts | 310° |
| 2026-05-07 09:45 | 56.30909 | 11.74177 | 23239 ft | 379 kts | 310° |
| 2026-05-07 09:46 | 56.32686 | 11.70691 | 23636 ft | 381 kts | 310° |
| 2026-05-07 09:46 | 56.34485 | 11.67151 | 24032 ft | 383 kts | 310° |
| 2026-05-07 09:46 | 56.36265 | 11.63631 | 24420 ft | 385 kts | 310° |
| 2026-05-07 09:46 | 56.38079 | 11.60036 | 24803 ft | 387 kts | 311° |
| 2026-05-07 09:47 | 56.39883 | 11.56452 | 25157 ft | 389 kts | 311° |
| 2026-05-07 09:47 | 56.41694 | 11.52853 | 25517 ft | 390 kts | 311° |
| 2026-05-07 09:47 | 56.43520 | 11.49219 | 25875 ft | 392 kts | 311° |
| 2026-05-07 09:47 | 56.45358 | 11.45554 | 26215 ft | 394 kts | 311° |
| 2026-05-07 09:48 | 56.47200 | 11.41876 | 26556 ft | 395 kts | 311° |
| 2026-05-07 09:48 | 56.49059 | 11.38159 | 26884 ft | 397 kts | 311° |
| 2026-05-07 09:48 | 56.50886 | 11.34497 | 27207 ft | 398 kts | 310° |
| 2026-05-07 09:48 | 56.52761 | 11.30735 | 27542 ft | 399 kts | 310° |
| 2026-05-07 09:49 | 56.54610 | 11.27018 | 27853 ft | 400 kts | 311° |
| 2026-05-07 09:49 | 56.56483 | 11.23247 | 28130 ft | 402 kts | 311° |
| 2026-05-07 09:49 | 56.58366 | 11.19453 | 28422 ft | 403 kts | 311° |
| 2026-05-07 09:49 | 56.60230 | 11.15688 | 28704 ft | 404 kts | 311° |
| 2026-05-07 09:50 | 56.62099 | 11.11909 | 28977 ft | 406 kts | 311° |
| 2026-05-07 09:50 | 56.63975 | 11.08108 | 29224 ft | 407 kts | 311° |
| 2026-05-07 09:50 | 56.65875 | 11.04254 | 29476 ft | 409 kts | 311° |
| 2026-05-07 09:50 | 56.67780 | 11.00381 | 29753 ft | 409 kts | 311° |
| 2026-05-07 09:51 | 56.69355 | 10.97174 | 29956 ft | 410 kts | 311° |
| 2026-05-07 09:51 | 56.71266 | 10.93280 | 30181 ft | 412 kts | 311° |
| 2026-05-07 09:51 | 56.73169 | 10.89395 | 30406 ft | 413 kts | 311° |
| 2026-05-07 09:51 | 56.75060 | 10.85530 | 30622 ft | 414 kts | 311° |
| 2026-05-07 09:52 | 56.76982 | 10.81596 | 30852 ft | 415 kts | 311° |
| 2026-05-07 09:52 | 56.78897 | 10.77668 | 31095 ft | 415 kts | 311° |
| 2026-05-07 09:52 | 56.80800 | 10.73757 | 31356 ft | 414 kts | 311° |
| 2026-05-07 09:52 | 56.82716 | 10.69814 | 31633 ft | 413 kts | 311° |
| 2026-05-07 09:53 | 56.84595 | 10.65938 | 31887 ft | 412 kts | 311° |
| 2026-05-07 09:53 | 56.86489 | 10.62026 | 32159 ft | 411 kts | 311° |
| 2026-05-07 09:53 | 56.88374 | 10.58125 | 32420 ft | 409 kts | 311° |
| 2026-05-07 09:53 | 56.90236 | 10.54266 | 32666 ft | 408 kts | 311° |
| 2026-05-07 09:54 | 56.92126 | 10.50343 | 32863 ft | 408 kts | 311° |
| 2026-05-07 09:54 | 56.93986 | 10.46472 | 33044 ft | 408 kts | 311° |
| 2026-05-07 09:54 | 56.95849 | 10.42593 | 33249 ft | 407 kts | 311° |
| 2026-05-07 09:54 | 56.97720 | 10.38690 | 33473 ft | 406 kts | 311° |
| 2026-05-07 09:55 | 56.99575 | 10.34814 | 33669 ft | 405 kts | 310° |
| 2026-05-07 09:55 | 57.01446 | 10.30897 | 33875 ft | 404 kts | 310° |
| 2026-05-07 09:55 | 57.03285 | 10.27042 | 34063 ft | 403 kts | 310° |
| 2026-05-07 09:55 | 57.05124 | 10.23179 | 34252 ft | 402 kts | 310° |
| 2026-05-07 09:56 | 57.06990 | 10.19256 | 34444 ft | 401 kts | 310° |
| 2026-05-07 09:56 | 57.08826 | 10.15389 | 34601 ft | 401 kts | 310° |
| 2026-05-07 09:56 | 57.10675 | 10.11487 | 34756 ft | 400 kts | 310° |
| 2026-05-07 09:56 | 57.12512 | 10.07602 | 34943 ft | 399 kts | 310° |
| 2026-05-07 09:57 | 57.14372 | 10.03667 | 35056 ft | 399 kts | 310° |
| 2026-05-07 09:57 | 57.18042 | 9.95876 | 35232 ft | 399 kts | 310° |
| 2026-05-07 09:58 | 57.21682 | 9.88123 | 35369 ft | 399 kts | 310° |
| 2026-05-07 09:58 | 57.25316 | 9.80357 | 35493 ft | 400 kts | 310° |
| 2026-05-07 09:59 | 57.28921 | 9.72630 | 35604 ft | 400 kts | 310° |
| 2026-05-07 09:59 | 57.32548 | 9.64831 | 35717 ft | 401 kts | 310° |
| 2026-05-07 10:00 | 57.36181 | 9.56990 | 35820 ft | 401 kts | 309° |
| 2026-05-07 10:00 | 57.39789 | 9.49179 | 35914 ft | 402 kts | 309° |
| 2026-05-07 10:01 | 57.43412 | 9.41308 | 36014 ft | 402 kts | 309° |
| 2026-05-07 10:01 | 57.47040 | 9.33399 | 36052 ft | 403 kts | 308° |
| 2026-05-07 10:02 | 57.50663 | 9.25474 | 36060 ft | 403 kts | 308° |
| 2026-05-07 10:02 | 57.54271 | 9.17558 | 36057 ft | 403 kts | 308° |
| 2026-05-07 10:03 | 57.57882 | 9.09606 | 36056 ft | 402 kts | 308° |
| 2026-05-07 10:03 | 57.61456 | 9.01712 | 36055 ft | 402 kts | 308° |
| 2026-05-07 10:04 | 57.65036 | 8.93776 | 36058 ft | 402 kts | 308° |
| 2026-05-07 10:04 | 57.68626 | 8.85795 | 36059 ft | 401 kts | 308° |
| 2026-05-07 10:05 | 57.72184 | 8.77854 | 36061 ft | 401 kts | 308° |
| 2026-05-07 10:05 | 57.75753 | 8.69863 | 36059 ft | 401 kts | 308° |
| 2026-05-07 10:06 | 57.79300 | 8.61896 | 36056 ft | 400 kts | 308° |
| 2026-05-07 10:06 | 57.82845 | 8.53907 | 36061 ft | 400 kts | 308° |
| 2026-05-07 10:07 | 57.86394 | 8.45879 | 36057 ft | 400 kts | 308° |
| 2026-05-07 10:07 | 57.89916 | 8.37884 | 36055 ft | 399 kts | 308° |
| 2026-05-07 10:08 | 57.93471 | 8.29787 | 36065 ft | 399 kts | 307° |
| 2026-05-07 10:08 | 57.96967 | 8.21797 | 36061 ft | 398 kts | 307° |
| 2026-05-07 10:09 | 58.00411 | 8.13902 | 36061 ft | 397 kts | 307° |
| 2026-05-07 10:09 | 58.03904 | 8.05867 | 36066 ft | 398 kts | 307° |
| 2026-05-07 10:10 | 58.07416 | 7.97760 | 36067 ft | 398 kts | 307° |
| 2026-05-07 10:10 | 58.10930 | 7.89620 | 36063 ft | 399 kts | 307° |
| 2026-05-07 10:11 | 58.14444 | 7.81455 | 36063 ft | 398 kts | 307° |
| 2026-05-07 10:11 | 58.17929 | 7.73328 | 36056 ft | 396 kts | 307° |
| 2026-05-07 10:12 | 58.21397 | 7.65210 | 36071 ft | 396 kts | 307° |
| 2026-05-07 10:12 | 58.24868 | 7.57059 | 36068 ft | 396 kts | 307° |
| 2026-05-07 10:13 | 58.28353 | 7.48848 | 36065 ft | 396 kts | 307° |
| 2026-05-07 10:13 | 58.31792 | 7.40711 | 36064 ft | 396 kts | 307° |
| 2026-05-07 10:14 | 58.35256 | 7.32491 | 36055 ft | 395 kts | 306° |
| 2026-05-07 10:14 | 58.38688 | 7.24322 | 36040 ft | 394 kts | 306° |
| 2026-05-07 10:15 | 58.42126 | 7.16104 | 36046 ft | 394 kts | 306° |
| 2026-05-07 10:15 | 58.45484 | 7.08054 | 36039 ft | 394 kts | 306° |
| 2026-05-07 10:16 | 58.48890 | 6.99861 | 36046 ft | 394 kts | 306° |
| 2026-05-07 10:16 | 58.52308 | 6.91609 | 36038 ft | 393 kts | 306° |
| 2026-05-07 10:17 | 58.55682 | 6.83437 | 36042 ft | 392 kts | 306° |
| 2026-05-07 10:17 | 58.59063 | 6.75212 | 36048 ft | 391 kts | 306° |
| 2026-05-07 10:18 | 58.62447 | 6.66954 | 36056 ft | 391 kts | 306° |
| 2026-05-07 10:18 | 58.65789 | 6.58777 | 36041 ft | 390 kts | 306° |
| 2026-05-07 10:19 | 58.69153 | 6.50512 | 36034 ft | 390 kts | 306° |
| 2026-05-07 10:19 | 58.72489 | 6.42284 | 36025 ft | 390 kts | 306° |
| 2026-05-07 10:20 | 58.75801 | 6.34091 | 36018 ft | 388 kts | 305° |
| 2026-05-07 10:20 | 58.79107 | 6.25880 | 36028 ft | 388 kts | 305° |
| 2026-05-07 10:21 | 58.82422 | 6.17624 | 36040 ft | 388 kts | 305° |
| 2026-05-07 10:21 | 58.85703 | 6.09423 | 36045 ft | 388 kts | 305° |
| 2026-05-07 10:22 | 58.89013 | 6.01121 | 36051 ft | 388 kts | 305° |
| 2026-05-07 10:22 | 58.92290 | 5.92871 | 36063 ft | 387 kts | 305° |
| 2026-05-07 10:23 | 58.95569 | 5.84588 | 36071 ft | 387 kts | 305° |
| 2026-05-07 10:23 | 58.98829 | 5.76325 | 36085 ft | 386 kts | 304° |
| 2026-05-07 10:24 | 59.02088 | 5.68030 | 36080 ft | 387 kts | 304° |
| 2026-05-07 10:24 | 59.05347 | 5.59706 | 36078 ft | 387 kts | 304° |
| 2026-05-07 10:25 | 59.08591 | 5.51395 | 36076 ft | 386 kts | 304° |
| 2026-05-07 10:25 | 59.11831 | 5.43067 | 36077 ft | 386 kts | 304° |
| 2026-05-07 10:26 | 59.15066 | 5.34719 | 36086 ft | 386 kts | 303° |
| 2026-05-07 10:26 | 59.18236 | 5.26509 | 36077 ft | 386 kts | 303° |
| 2026-05-07 10:27 | 59.21440 | 5.18184 | 36080 ft | 385 kts | 303° |
| 2026-05-07 10:27 | 59.24645 | 5.09824 | 36073 ft | 385 kts | 303° |
| 2026-05-07 10:28 | 59.27844 | 5.01450 | 36084 ft | 385 kts | 303° |
| 2026-05-07 10:28 | 59.31038 | 4.93064 | 36072 ft | 385 kts | 303° |
| 2026-05-07 10:29 | 59.34217 | 4.84685 | 36074 ft | 385 kts | 303° |
| 2026-05-07 10:29 | 59.37398 | 4.76268 | 36079 ft | 385 kts | 303° |
| 2026-05-07 10:30 | 59.42143 | 4.63661 | 36084 ft | 385 kts | 303° |
| 2026-05-07 10:30 | 59.45298 | 4.55236 | 36078 ft | 385 kts | 303° |
| 2026-05-07 10:31 | 59.48454 | 4.46784 | 36071 ft | 385 kts | 303° |
| 2026-05-07 10:31 | 59.51604 | 4.38316 | 36066 ft | 384 kts | 303° |
| 2026-05-07 10:32 | 59.54686 | 4.30001 | 36073 ft | 385 kts | 302° |
| 2026-05-07 10:32 | 59.57831 | 4.21489 | 36069 ft | 385 kts | 302° |
| 2026-05-07 10:33 | 59.60964 | 4.12971 | 36076 ft | 385 kts | 302° |
| 2026-05-07 10:33 | 59.64067 | 4.04508 | 36079 ft | 385 kts | 302° |
| 2026-05-07 10:34 | 59.67202 | 3.95926 | 36060 ft | 384 kts | 302° |
| 2026-05-07 10:34 | 59.70307 | 3.87398 | 36078 ft | 384 kts | 302° |
| 2026-05-07 10:35 | 59.73412 | 3.78839 | 36070 ft | 384 kts | 302° |
| 2026-05-07 10:35 | 59.76500 | 3.70293 | 36084 ft | 384 kts | 302° |
| 2026-05-07 10:36 | 59.79589 | 3.61714 | 36072 ft | 383 kts | 302° |
| 2026-05-07 10:36 | 59.82685 | 3.53090 | 36075 ft | 383 kts | 301° |
| 2026-05-07 10:37 | 59.85753 | 3.44498 | 36077 ft | 383 kts | 301° |
| 2026-05-07 10:37 | 59.88793 | 3.35962 | 36085 ft | 382 kts | 301° |
| 2026-05-07 10:38 | 59.91858 | 3.27320 | 36077 ft | 382 kts | 301° |
| 2026-05-07 10:38 | 59.94904 | 3.18703 | 36083 ft | 382 kts | 301° |
| 2026-05-07 10:39 | 59.97948 | 3.10061 | 36078 ft | 383 kts | 300° |
| 2026-05-07 10:39 | 60.00997 | 3.01374 | 36087 ft | 383 kts | 300° |
| 2026-05-07 10:40 | 60.04017 | 2.92729 | 36076 ft | 382 kts | 300° |
| 2026-05-07 10:40 | 60.07056 | 2.84002 | 36063 ft | 383 kts | 300° |
| 2026-05-07 10:41 | 60.10075 | 2.75308 | 36064 ft | 383 kts | 300° |
| 2026-05-07 10:41 | 60.13102 | 2.66550 | 36051 ft | 383 kts | 300° |
| 2026-05-07 10:42 | 60.16122 | 2.57787 | 36058 ft | 384 kts | 300° |
| 2026-05-07 10:42 | 60.19118 | 2.49047 | 36296 ft | 385 kts | 300° |
| 2026-05-07 10:43 | 60.20627 | 2.44639 | 36173 ft | 382 kts | 300° |
| 2026-05-07 10:43 | 60.22128 | 2.40247 | 36103 ft | 381 kts | 300° |
| 2026-05-07 10:43 | 60.25114 | 2.31481 | 36074 ft | 381 kts | 299° |
| 2026-05-07 10:44 | 60.28083 | 2.22727 | 36061 ft | 381 kts | 299° |
| 2026-05-07 10:44 | 60.31052 | 2.13941 | 36051 ft | 381 kts | 299° |
| 2026-05-07 10:45 | 60.34021 | 2.05119 | 36058 ft | 381 kts | 299° |
| 2026-05-07 10:45 | 60.36998 | 1.96253 | 36057 ft | 381 kts | 299° |
| 2026-05-07 10:46 | 60.39951 | 1.87413 | 36057 ft | 381 kts | 298° |
| 2026-05-07 10:46 | 60.42886 | 1.78598 | 36042 ft | 382 kts | 298° |
| 2026-05-07 10:47 | 60.45852 | 1.69652 | 36036 ft | 382 kts | 299° |
| 2026-05-07 10:47 | 60.48799 | 1.60733 | 36039 ft | 383 kts | 298° |
| 2026-05-07 10:48 | 60.51738 | 1.51804 | 36028 ft | 383 kts | 299° |
| 2026-05-07 10:48 | 60.54673 | 1.42852 | 36035 ft | 383 kts | 299° |
| 2026-05-07 10:49 | 60.57590 | 1.33918 | 36026 ft | 382 kts | 298° |
| 2026-05-07 10:49 | 60.60514 | 1.24926 | 36029 ft | 382 kts | 298° |
| 2026-05-07 10:50 | 60.63453 | 1.15862 | 36014 ft | 385 kts | 298° |
| 2026-05-07 10:50 | 60.66407 | 1.06700 | 36016 ft | 390 kts | 297° |
| 2026-05-07 10:51 | 60.69390 | 0.97423 | 36011 ft | 394 kts | 298° |
| 2026-05-07 10:51 | 60.72395 | 0.88036 | 36014 ft | 398 kts | 298° |
| 2026-05-07 10:52 | 60.75412 | 0.78577 | 36002 ft | 401 kts | 298° |
| 2026-05-07 10:52 | 60.78455 | 0.69000 | 36006 ft | 404 kts | 297° |
| 2026-05-07 10:53 | 60.81515 | 0.59307 | 35993 ft | 406 kts | 298° |
| 2026-05-07 10:53 | 60.84561 | 0.49636 | 35999 ft | 407 kts | 298° |
| 2026-05-07 10:54 | 60.87623 | 0.39872 | 35987 ft | 409 kts | 297° |
| 2026-05-07 10:54 | 60.90691 | 0.30045 | 35999 ft | 409 kts | 297° |
| 2026-05-07 10:55 | 60.93735 | 0.20253 | 35991 ft | 409 kts | 297° |
| 2026-05-07 10:55 | 60.96778 | 0.10414 | 36001 ft | 409 kts | 297° |
| 2026-05-07 10:56 | 60.99785 | 0.00502 | 35989 ft | 409 kts | 294° |
| 2026-05-07 10:56 | 61.02405 | -0.09584 | 35991 ft | 408 kts | 292° |
| 2026-05-07 10:57 | 61.05006 | -0.19981 | 35974 ft | 408 kts | 292° |
| 2026-05-07 10:57 | 61.07576 | -0.30320 | 35969 ft | 408 kts | 292° |
| 2026-05-07 10:58 | 61.10158 | -0.40747 | 35976 ft | 408 kts | 292° |
| 2026-05-07 10:58 | 61.12721 | -0.51136 | 35958 ft | 409 kts | 292° |
| 2026-05-07 10:59 | 61.15286 | -0.61591 | 35970 ft | 410 kts | 292° |
| 2026-05-07 10:59 | 61.17855 | -0.72120 | 35958 ft | 410 kts | 292° |
| 2026-05-07 11:00 | 61.20409 | -0.82626 | 35966 ft | 411 kts | 291° |
| 2026-05-07 11:00 | 61.22963 | -0.93190 | 35953 ft | 412 kts | 292° |
| 2026-05-07 11:01 | 61.25509 | -1.03763 | 35945 ft | 412 kts | 291° |
| 2026-05-07 11:01 | 61.28052 | -1.14371 | 35946 ft | 413 kts | 291° |
| 2026-05-07 11:02 | 61.30596 | -1.25055 | 35955 ft | 413 kts | 292° |
| 2026-05-07 11:02 | 61.33129 | -1.35735 | 35945 ft | 414 kts | 292° |
| 2026-05-07 11:03 | 61.35658 | -1.46449 | 35938 ft | 414 kts | 292° |
| 2026-05-07 11:03 | 61.38187 | -1.57225 | 35939 ft | 416 kts | 292° |
| 2026-05-07 11:04 | 61.40713 | -1.68028 | 35925 ft | 416 kts | 291° |
| 2026-05-07 11:04 | 61.43219 | -1.78803 | 35933 ft | 417 kts | 291° |
| 2026-05-07 11:05 | 61.45736 | -1.89692 | 35930 ft | 417 kts | 291° |
| 2026-05-07 11:05 | 61.48257 | -2.00639 | 35919 ft | 419 kts | 291° |
| 2026-05-07 11:06 | 61.50750 | -2.11529 | 35906 ft | 418 kts | 291° |
| 2026-05-07 11:06 | 61.53245 | -2.22489 | 35926 ft | 420 kts | 291° |
| 2026-05-07 11:07 | 61.55747 | -2.33517 | 35898 ft | 420 kts | 291° |
| 2026-05-07 11:07 | 61.58236 | -2.44557 | 35915 ft | 421 kts | 291° |
| 2026-05-07 11:08 | 61.60713 | -2.55598 | 35904 ft | 421 kts | 291° |
| 2026-05-07 11:08 | 61.63196 | -2.66729 | 35904 ft | 422 kts | 290° |
| 2026-05-07 11:09 | 61.65671 | -2.77880 | 35905 ft | 422 kts | 291° |
| 2026-05-07 11:09 | 61.68130 | -2.89008 | 35904 ft | 422 kts | 290° |
| 2026-05-07 11:10 | 61.70586 | -3.00194 | 35885 ft | 423 kts | 291° |
| 2026-05-07 11:10 | 61.73038 | -3.11411 | 35895 ft | 424 kts | 291° |
| 2026-05-07 11:11 | 61.75464 | -3.22577 | 35893 ft | 423 kts | 291° |
| 2026-05-07 11:11 | 61.77907 | -3.33883 | 35878 ft | 424 kts | 291° |
| 2026-05-07 11:12 | 61.80343 | -3.45219 | 35879 ft | 425 kts | 291° |
| 2026-05-07 11:12 | 61.82756 | -3.56496 | 35887 ft | 425 kts | 291° |
| 2026-05-07 11:13 | 61.85182 | -3.67900 | 35872 ft | 426 kts | 290° |
| 2026-05-07 11:13 | 61.87590 | -3.79287 | 35879 ft | 426 kts | 290° |
| 2026-05-07 11:14 | 61.90001 | -3.90737 | 35863 ft | 426 kts | 290° |
| 2026-05-07 11:14 | 61.92397 | -4.02187 | 35870 ft | 427 kts | 290° |
| 2026-05-07 11:15 | 61.94793 | -4.13694 | 35862 ft | 427 kts | 290° |
| 2026-05-07 11:15 | 61.97169 | -4.25188 | 35855 ft | 428 kts | 290° |
| 2026-05-07 11:16 | 61.99537 | -4.36684 | 35846 ft | 428 kts | 290° |
| 2026-05-07 11:16 | 62.01915 | -4.48314 | 35844 ft | 428 kts | 290° |
| 2026-05-07 11:17 | 62.04267 | -4.59874 | 35844 ft | 427 kts | 290° |
| 2026-05-07 11:17 | 62.05437 | -4.65646 | 35715 ft | 423 kts | 290° |
| 2026-05-07 11:17 | 62.06628 | -4.71534 | 35275 ft | 422 kts | 289° |
| 2026-05-07 11:18 | 62.07793 | -4.77321 | 34654 ft | 424 kts | 289° |
| 2026-05-07 11:18 | 62.08949 | -4.83075 | 34032 ft | 426 kts | 289° |
| 2026-05-07 11:18 | 62.10098 | -4.88799 | 33503 ft | 426 kts | 288° |
| 2026-05-07 11:18 | 62.11257 | -4.94580 | 33007 ft | 424 kts | 288° |
| 2026-05-07 11:19 | 62.12186 | -5.00443 | 32462 ft | 418 kts | 279° |
| 2026-05-07 11:19 | 62.12683 | -5.06530 | 31902 ft | 412 kts | 271° |
| 2026-05-07 11:19 | 62.12780 | -5.12519 | 31345 ft | 406 kts | 264° |
| 2026-05-07 11:19 | 62.12509 | -5.18478 | 30727 ft | 400 kts | 257° |
| 2026-05-07 11:20 | 62.11895 | -5.24179 | 29996 ft | 397 kts | 251° |
| 2026-05-07 11:20 | 62.11022 | -5.29714 | 29110 ft | 400 kts | 248° |
| 2026-05-07 11:20 | 62.10081 | -5.35357 | 28083 ft | 406 kts | 248° |
| 2026-05-07 11:20 | 62.09136 | -5.40960 | 27052 ft | 412 kts | 248° |
| 2026-05-07 11:21 | 62.08158 | -5.46717 | 25979 ft | 418 kts | 248° |
| 2026-05-07 11:21 | 62.07164 | -5.52559 | 24873 ft | 424 kts | 248° |
| 2026-05-07 11:21 | 62.06162 | -5.58418 | 23675 ft | 430 kts | 248° |
| 2026-05-07 11:21 | 62.05133 | -5.64413 | 22414 ft | 437 kts | 247° |
| 2026-05-07 11:22 | 62.04092 | -5.70475 | 21405 ft | 433 kts | 247° |
| 2026-05-07 11:22 | 62.03087 | -5.76316 | 20651 ft | 413 kts | 247° |
| 2026-05-07 11:22 | 62.02124 | -5.81897 | 19262 ft | 409 kts | 247° |
| 2026-05-07 11:22 | 62.01146 | -5.87548 | 17578 ft | 411 kts | 247° |
| 2026-05-07 11:23 | 62.00178 | -5.93105 | 16104 ft | 406 kts | 246° |
| 2026-05-07 11:23 | 61.99208 | -5.98665 | 14800 ft | 397 kts | 246° |
| 2026-05-07 11:23 | 61.98275 | -6.03984 | 13932 ft | 379 kts | 246° |
| 2026-05-07 11:23 | 61.97378 | -6.09125 | 13311 ft | 360 kts | 246° |
| 2026-05-07 11:24 | 61.96532 | -6.13957 | 12774 ft | 345 kts | 245° |
| 2026-05-07 11:24 | 61.95715 | -6.18602 | 12517 ft | 333 kts | 246° |
| 2026-05-07 11:24 | 61.94905 | -6.23170 | 12254 ft | 336 kts | 245° |
| 2026-05-07 11:24 | 61.94058 | -6.27884 | 11985 ft | 346 kts | 244° |
| 2026-05-07 11:25 | 61.93204 | -6.32670 | 11722 ft | 348 kts | 246° |
| 2026-05-07 11:25 | 61.92348 | -6.37482 | 11463 ft | 349 kts | 246° |
| 2026-05-07 11:25 | 61.91485 | -6.42314 | 11200 ft | 349 kts | 245° |
| 2026-05-07 11:25 | 61.90625 | -6.47114 | 10937 ft | 350 kts | 246° |
| 2026-05-07 11:26 | 61.89763 | -6.51929 | 10667 ft | 349 kts | 245° |
| 2026-05-07 11:26 | 61.89071 | -6.56823 | 10398 ft | 355 kts | 260° |
| 2026-05-07 11:26 | 61.89228 | -6.62037 | 10098 ft | 363 kts | 284° |
| 2026-05-07 11:26 | 61.90004 | -6.67090 | 9806 ft | 363 kts | 286° |
| 2026-05-07 11:27 | 61.90814 | -6.72145 | 9493 ft | 362 kts | 286° |
| 2026-05-07 11:27 | 61.91621 | -6.77235 | 9188 ft | 360 kts | 285° |
| 2026-05-07 11:27 | 61.92401 | -6.82232 | 8903 ft | 358 kts | 285° |
| 2026-05-07 11:27 | 61.93171 | -6.87232 | 8616 ft | 358 kts | 285° |
| 2026-05-07 11:28 | 61.93931 | -6.92213 | 8339 ft | 358 kts | 286° |
| 2026-05-07 11:28 | 61.94696 | -6.97255 | 8047 ft | 357 kts | 286° |
| 2026-05-07 11:28 | 61.95459 | -7.02279 | 7750 ft | 355 kts | 286° |
| 2026-05-07 11:28 | 61.96206 | -7.07205 | 7463 ft | 355 kts | 285° |
| 2026-05-07 11:29 | 61.96947 | -7.12126 | 7137 ft | 354 kts | 286° |
| 2026-05-07 11:29 | 61.97694 | -7.17101 | 6784 ft | 343 kts | 286° |
| 2026-05-07 11:29 | 61.98405 | -7.21839 | 6447 ft | 324 kts | 286° |
| 2026-05-07 11:29 | 61.99071 | -7.26300 | 6122 ft | 307 kts | 286° |
| 2026-05-07 11:30 | 61.99701 | -7.30548 | 5705 ft | 299 kts | 287° |
| 2026-05-07 11:30 | 62.00319 | -7.34722 | 5210 ft | 297 kts | 287° |
| 2026-05-07 11:30 | 62.00936 | -7.38899 | 4706 ft | 295 kts | 288° |
| 2026-05-07 11:30 | 62.01541 | -7.42984 | 4474 ft | 284 kts | 288° |
| 2026-05-07 11:31 | 62.02125 | -7.46915 | 4265 ft | 277 kts | 290° |
| 2026-05-07 11:31 | 62.02878 | -7.50360 | 4056 ft | 264 kts | 308° |
| 2026-05-07 11:31 | 62.04020 | -7.53228 | 3951 ft | 239 kts | 326° |
| 2026-05-07 11:31 | 62.05310 | -7.55151 | 4012 ft | 220 kts | 341° |
| 2026-05-07 11:32 | 62.07904 | -7.56213 | 3946 ft | 164 kts | 26° |
| 2026-05-07 11:32 | 62.08889 | -7.55371 | 3754 ft | 144 kts | 45° |
| 2026-05-07 11:32 | 62.09602 | -7.54101 | 3387 ft | 129 kts | 60° |
| 2026-05-07 11:33 | 62.10093 | -7.52537 | 2866 ft | 127 kts | 72° |
| 2026-05-07 11:33 | 62.10365 | -7.50751 | 2735 ft | 130 kts | 83° |
| 2026-05-07 11:33 | 62.10419 | -7.48794 | 2544 ft | 134 kts | 94° |
| 2026-05-07 11:33 | 62.10218 | -7.46878 | 2323 ft | 134 kts | 107° |
| 2026-05-07 11:34 | 62.09870 | -7.45047 | 2126 ft | 133 kts | 106° |
| 2026-05-07 11:34 | 62.09531 | -7.43229 | 1910 ft | 131 kts | 107° |
| 2026-05-07 11:34 | 62.09182 | -7.41420 | 1695 ft | 131 kts | 106° |
| 2026-05-07 11:34 | 62.08831 | -7.39604 | 1505 ft | 130 kts | 106° |
| 2026-05-07 11:35 | 62.08487 | -7.37840 | 1284 ft | 131 kts | 107° |
| 2026-05-07 11:35 | 62.08134 | -7.36038 | 1083 ft | 131 kts | 108° |
| 2026-05-07 11:35 | 62.07787 | -7.34294 | 875 ft | 129 kts | 106° |
| 2026-05-07 11:35 | 62.07447 | -7.32520 | 676 ft | 129 kts | 106° |
| 2026-05-07 11:36 | 62.07102 | -7.30757 | 441 ft | 130 kts | 110° |
| 2026-05-07 11:36 | 62.06696 | -7.29094 | 297 ft | 124 kts | 112° |
| 2026-05-07 11:36 | 62.06327 | -7.27603 | 293 ft | 94 kts | 115° |
| 2026-05-07 11:36 | 62.06139 | -7.26830 | 272 ft | 27 kts | 119° |
| 2026-05-07 11:37 | 62.06047 | -7.26454 | 259 ft | 29 kts | 117° |
| 2026-05-07 11:37 | 62.05957 | -7.26080 | 249 ft | 23 kts | 106° |
| 2026-05-07 11:37 | 62.05930 | -7.25996 | 248 ft | 5 kts | 253° |
| 2026-05-07 11:37 | 62.05955 | -7.26072 | 249 ft | 7 kts | 299° |
| 2026-05-07 11:38 | 62.06008 | -7.26293 | 253 ft | 25 kts | 297° |
| 2026-05-07 11:38 | 62.06109 | -7.26699 | 267 ft | 36 kts | 298° |
| 2026-05-07 11:38 | 62.06233 | -7.27190 | 282 ft | 35 kts | 295° |
| 2026-05-07 11:38 | 62.06335 | -7.27621 | 293 ft | 31 kts | 298° |
| 2026-05-07 11:39 | 62.06431 | -7.28016 | 294 ft | 27 kts | 296° |
| 2026-05-07 11:39 | 62.06518 | -7.28125 | 291 ft | 14 kts | 20° |
| 2026-05-07 11:39 | 62.06614 | -7.28082 | 290 ft | 10 kts | 358° |
| 2026-05-07 11:39 | 62.06644 | -7.27994 | 290 ft | 0 kts | 96° |
| 2026-05-07 11:40 | 62.06650 | -7.27981 | 290 ft | 0 kts | 21° |
| 2026-05-07 11:40 | 62.06664 | -7.27970 | 290 ft | 5 kts | 21° |
| 2026-05-07 11:40 | 62.06686 | -7.27949 | 290 ft | 0 kts | 28° |